Time;durP1;ratioP1;P1;durP2;ratioP2;P2;SDS_P1;SDS_P2;PMS_P1;PMS_P2;Temp;Humidity;BMP_temperature;BMP_pressure;BME280_temperature;BME280_humidity;BME280_pressure;Samples;Min_cycle;Max_cycle;Signal;HPM_P1;HPM_P2
2022/04/25 00:00:05;;;;;;;2.65;1.00;;;;;;;4.66;91.34;100308.88;5023632;28;20056;-75
2022/04/25 00:02:37;;;;;;;1.70;1.17;;;;;;;4.68;91.50;100301.31;5045452;28;20630;-76
2022/04/25 00:05:03;;;;;;;1.65;1.45;;;;;;;4.66;91.59;100322.47;5022947;28;20084;-76
2022/04/25 00:07:29;;;;;;;2.20;1.10;;;;;;;4.60;91.63;100305.28;5065633;28;20045;-76
2022/04/25 00:09:54;;;;;;;1.17;0.98;;;;;;;4.59;91.79;100295.50;5023046;28;20558;-76
2022/04/25 00:12:20;;;;;;;1.83;1.13;;;;;;;4.60;91.69;100294.41;5013910;28;20065;-76
2022/04/25 00:14:46;;;;;;;1.45;1.10;;;;;;;4.61;91.98;100284.38;5013849;28;20091;-76
2022/04/25 00:17:11;;;;;;;1.77;1.65;;;;;;;4.58;92.00;100301.19;5032611;28;20092;-76
2022/04/25 00:19:37;;;;;;;2.38;1.40;;;;;;;4.53;92.10;100281.03;5033561;28;20751;-76
2022/04/25 00:22:03;;;;;;;1.95;1.48;;;;;;;4.53;92.39;100277.47;5007461;28;20046;-76
2022/04/25 00:24:29;;;;;;;1.50;1.30;;;;;;;4.52;92.80;100281.28;5013541;28;20413;-76
2022/04/25 00:26:55;;;;;;;2.35;1.38;;;;;;;4.49;92.28;100279.84;5047600;28;20099;-76
2022/04/25 00:29:21;;;;;;;3.70;1.80;;;;;;;4.46;92.88;100280.34;5028662;28;20137;-76
2022/04/25 00:31:47;;;;;;;4.05;1.67;;;;;;;4.45;92.72;100281.44;5024471;28;20060;-76
2022/04/25 00:34:12;;;;;;;1.33;1.10;;;;;;;4.40;92.95;100275.94;5031434;28;20041;-76
2022/04/25 00:36:38;;;;;;;1.73;1.02;;;;;;;4.40;93.01;100266.97;5033240;28;20095;-76
2022/04/25 00:39:04;;;;;;;2.20;1.48;;;;;;;4.40;92.86;100280.53;5032833;28;20407;-76
2022/04/25 00:41:30;;;;;;;3.17;2.13;;;;;;;4.38;92.92;100280.78;5032019;28;20053;-76
2022/04/25 00:43:56;;;;;;;3.30;1.55;;;;;;;4.36;93.30;100272.06;5033290;28;20077;-76
2022/04/25 00:46:24;;;;;;;1.40;1.10;;;;;;;4.33;92.93;100258.97;5016939;28;20413;-76
2022/04/25 00:48:49;;;;;;;2.90;1.50;;;;;;;4.32;92.95;100265.47;5012200;28;20093;-76
2022/04/25 00:51:16;;;;;;;2.30;1.40;;;;;;;4.32;93.42;100254.59;5032145;28;20184;-76
2022/04/25 00:53:46;;;;;;;0.95;0.80;;;;;;;4.32;93.42;100251.06;5015296;28;20042;-76
2022/04/25 00:56:14;;;;;;;2.38;1.52;;;;;;;4.31;93.70;100261.09;5013034;28;20531;-76
2022/04/25 00:58:42;;;;;;;3.57;1.60;;;;;;;4.30;93.55;100250.50;5013271;28;20132;-76
2022/04/25 01:01:08;;;;;;;3.08;1.30;;;;;;;4.28;93.61;100253.47;5044937;28;20295;-76
2022/04/25 01:03:33;;;;;;;2.33;1.00;;;;;;;4.26;93.32;100249.38;5013716;28;20037;-76
2022/04/25 01:05:59;;;;;;;3.63;1.13;;;;;;;4.27;93.27;100251.00;5012902;28;20092;-76
2022/04/25 01:08:26;;;;;;;0.88;0.73;;;;;;;4.27;93.82;100243.69;5023565;28;20041;-76
2022/04/25 01:10:52;;;;;;;1.27;1.10;;;;;;;4.27;94.06;100248.28;5060295;28;20549;-76
2022/04/25 01:13:18;;;;;;;1.13;0.68;;;;;;;4.26;93.57;100238.50;5044733;28;20046;-76
2022/04/25 01:15:43;;;;;;;1.00;0.88;;;;;;;4.30;93.27;100250.50;5012807;28;20125;-76
2022/04/25 01:18:09;;;;;;;1.20;1.00;;;;;;;4.28;93.45;100234.47;5014602;28;20037;-76
2022/04/25 01:20:35;;;;;;;1.92;1.20;;;;;;;4.29;93.09;100240.72;5032257;28;20464;-76
2022/04/25 01:27:15;;;;;;;2.63;1.20;;;;;;;4.27;93.40;100230.09;5048034;28;20048;-77
2022/04/25 01:28:35;;;;;;;1.92;1.08;;;;;;;4.25;93.36;100232.25;5036302;28;20045;-76
2022/04/25 01:31:00;;;;;;;1.40;0.40;;;;;;;4.23;93.97;100220.81;5036175;28;20203;-76
2022/04/25 01:33:26;;;;;;;2.13;1.33;;;;;;;4.19;93.78;100225.09;5014961;28;20121;-75
2022/04/25 01:35:52;;;;;;;1.60;1.50;;;;;;;4.17;93.77;100235.41;5011966;28;20041;-75
2022/04/25 01:38:17;;;;;;;2.10;1.58;;;;;;;4.16;94.50;100225.56;5032969;28;20455;-75
2022/04/25 01:40:43;;;;;;;3.03;1.45;;;;;;;4.13;94.35;100220.66;5015812;28;20045;-75
2022/04/25 01:43:08;;;;;;;1.65;1.08;;;;;;;4.12;94.04;100216.28;5023111;28;20459;-75
2022/04/25 01:45:34;;;;;;;2.30;1.40;;;;;;;4.14;94.55;100225.00;5031600;28;20041;-76
2022/04/25 01:47:59;;;;;;;2.05;1.35;;;;;;;4.13;94.17;100217.94;5024063;28;20124;-75
2022/04/25 01:50:25;;;;;;;2.30;1.60;;;;;;;4.10;94.71;100211.13;5010713;28;20444;-74
2022/04/25 01:52:51;;;;;;;2.17;1.45;;;;;;;4.08;94.67;100207.81;5038783;28;20041;-77
2022/04/25 01:55:16;;;;;;;1.73;1.30;;;;;;;4.08;94.56;100215.16;5030375;28;20076;-76
2022/04/25 01:57:43;;;;;;;1.55;1.40;;;;;;;4.04;94.79;100206.69;5024567;28;20404;-77
2022/04/25 02:00:09;;;;;;;1.30;1.10;;;;;;;4.02;94.68;100191.72;5027144;28;20450;-77
2022/04/25 02:02:35;;;;;;;4.07;1.25;;;;;;;4.01;94.74;100187.38;5024582;28;20041;-77
2022/04/25 02:05:01;;;;;;;2.28;1.60;;;;;;;4.02;94.76;100199.88;5011931;28;20408;-77
2022/04/25 02:07:27;;;;;;;1.17;0.98;;;;;;;3.97;94.80;100191.63;5027790;28;20037;-76
2022/04/25 02:09:53;;;;;;;1.80;1.40;;;;;;;3.97;94.79;100191.63;5045350;28;20095;-76
2022/04/25 02:12:21;;;;;;;0.93;0.60;;;;;;;3.98;95.03;100177.81;5042442;28;20049;-76
2022/04/25 02:14:46;;;;;;;2.45;1.60;;;;;;;4.00;94.64;100174.88;5019216;28;20040;-76
2022/04/25 02:17:13;;;;;;;1.33;1.13;;;;;;;4.00;95.08;100172.16;5016315;28;20424;-76
2022/04/25 02:19:39;;;;;;;1.73;1.27;;;;;;;4.03;95.03;100190.66;5026247;28;20045;-76
2022/04/25 02:22:06;;;;;;;1.70;1.00;;;;;;;4.01;95.09;100181.94;5052031;28;20049;-75
2022/04/25 02:24:32;;;;;;;2.50;1.42;;;;;;;4.03;95.08;100174.38;5012835;28;20136;-75
2022/04/25 02:26:58;;;;;;;2.00;1.45;;;;;;;4.03;95.11;100164.31;5014101;28;20048;-75
2022/04/25 02:29:25;;;;;;;1.02;0.98;;;;;;;4.05;95.17;100174.94;4997309;28;20046;-75
2022/04/25 02:31:51;;;;;;;1.73;1.23;;;;;;;4.04;94.62;100167.84;5011483;28;20609;-75
2022/04/25 02:34:17;;;;;;;1.77;1.33;;;;;;;4.06;94.96;100163.00;5025530;28;20068;-75
2022/04/25 02:36:42;;;;;;;1.90;1.50;;;;;;;4.06;94.69;100158.38;5019370;28;20080;-74
2022/04/25 02:39:08;;;;;;;1.83;1.27;;;;;;;4.07;94.83;100153.78;5021345;28;20539;-75
2022/04/25 02:41:34;;;;;;;1.08;0.82;;;;;;;4.08;94.79;100158.13;5011477;28;20073;-75
2022/04/25 02:43:59;;;;;;;1.48;1.15;;;;;;;4.08;94.73;100147.28;5011237;28;20436;-74
2022/04/25 02:46:25;;;;;;;2.78;1.65;;;;;;;4.06;94.63;100144.81;5026131;28;20561;-76
2022/04/25 02:48:51;;;;;;;2.40;1.30;;;;;;;4.07;94.67;100148.34;5026417;28;20056;-75
2022/04/25 02:51:16;;;;;;;2.10;1.13;;;;;;;4.04;94.73;100149.69;5029652;28;20038;-74
2022/04/25 02:53:43;;;;;;;1.73;1.40;;;;;;;4.04;94.40;100154.28;5062823;28;20452;-76
2022/04/25 02:56:08;;;;;;;1.80;1.60;;;;;;;4.02;94.77;100146.41;5030778;28;20049;-75
2022/04/25 02:58:36;;;;;;;1.90;1.30;;;;;;;4.02;94.86;100140.97;5031112;28;20396;-76
2022/04/25 03:01:04;;;;;;;1.40;1.30;;;;;;;4.03;94.11;100145.31;5060506;28;20473;-76
2022/04/25 03:03:32;;;;;;;1.63;1.10;;;;;;;4.04;94.20;100143.44;5022402;28;20094;-76
2022/04/25 03:05:59;;;;;;;2.35;1.58;;;;;;;4.04;94.61;100136.09;5028723;28;20068;-76
2022/04/25 03:08:25;;;;;;;1.65;1.05;;;;;;;4.04;94.47;100129.84;5032475;28;20037;-76
2022/04/25 03:10:52;;;;;;;1.92;1.02;;;;;;;4.08;94.28;100136.41;5030611;28;20446;-76
2022/04/25 03:13:19;;;;;;;1.33;1.23;;;;;;;4.06;94.25;100128.53;5017785;28;20068;-76
2022/04/25 03:15:47;;;;;;;2.53;1.17;;;;;;;4.06;94.48;100127.72;5025435;28;20129;-76
2022/04/25 03:18:15;;;;;;;2.95;1.60;;;;;;;4.06;94.71;100119.56;5027200;28;20045;-76
2022/04/25 03:20:42;;;;;;;2.33;1.73;;;;;;;4.06;94.29;100119.56;5036403;28;20077;-76
2022/04/25 03:23:08;;;;;;;1.55;1.20;;;;;;;4.07;94.71;100115.78;5012561;28;20053;-76
2022/04/25 03:25:34;;;;;;;1.58;1.40;;;;;;;4.08;94.78;100103.84;5022903;28;20034;-76
2022/04/25 03:28:00;;;;;;;2.28;0.85;;;;;;;4.08;94.89;100111.97;5058385;28;20033;-76
2022/04/25 03:30:27;;;;;;;1.80;1.35;;;;;;;4.08;94.57;100110.09;5018683;28;20176;-76
2022/04/25 03:32:53;;;;;;;2.85;1.58;;;;;;;4.07;94.61;100096.78;4995486;28;20469;-76
2022/04/25 03:35:20;;;;;;;1.10;0.82;;;;;;;4.05;95.08;100102.44;5013804;28;20033;-76
2022/04/25 03:37:46;;;;;;;1.77;1.38;;;;;;;4.08;95.23;100122.84;5014914;28;20501;-76
2022/04/25 03:40:13;;;;;;;2.30;1.50;;;;;;;4.07;95.44;100110.34;5011650;28;20072;-76
2022/04/25 03:42:39;;;;;;;2.67;1.83;;;;;;;4.06;94.91;100103.28;5026511;28;20073;-76
2022/04/25 03:45:08;;;;;;;0.77;0.68;;;;;;;4.05;95.17;100109.78;5018659;28;20456;-76
2022/04/25 03:47:34;;;;;;;;;;;;;;;4.05;94.97;100107.06;5027959;28;20041;-76
2022/04/25 03:50:00;;;;;;;1.88;1.60;;;;;;;4.03;95.20;100104.59;5045419;28;20306;-76
2022/04/25 03:52:25;;;;;;;1.92;1.60;;;;;;;4.04;95.86;100102.69;5029583;28;20087;-76
2022/04/25 03:57:36;;;;;;;1.88;1.40;;;;;;;4.04;95.84;100100.81;5026596;28;20045;-76
2022/04/25 04:00:03;;;;;;;1.77;1.00;;;;;;;4.03;95.67;100084.78;5030694;28;20045;-76
2022/04/25 04:02:37;;;;;;;1.90;1.35;;;;;;;4.07;95.96;100091.34;5028994;28;20047;-76
2022/04/25 04:05:05;;;;;;;1.10;0.85;;;;;;;4.10;95.73;100090.81;5028379;28;20029;-77
2022/04/25 04:07:31;;;;;;;2.38;1.83;;;;;;;4.08;95.53;100096.50;5014794;28;20443;-77
2022/04/25 04:09:57;;;;;;;2.75;1.45;;;;;;;4.08;95.96;100088.38;5026218;28;20033;-77
2022/04/25 04:12:24;;;;;;;2.38;1.77;;;;;;;4.10;96.09;100080.78;5012746;28;20087;-75
2022/04/25 04:14:49;;;;;;;2.17;1.45;;;;;;;4.11;96.25;100082.44;5014556;28;20072;-76
2022/04/25 04:17:17;;;;;;;1.92;1.70;;;;;;;4.09;96.11;100076.44;5014027;28;20066;-78
2022/04/25 04:19:43;;;;;;;0.32;0.32;;;;;;;4.10;96.14;100079.97;5025939;28;20444;-74
2022/04/25 04:22:09;;;;;;;2.67;1.40;;;;;;;4.10;96.44;100071.81;5013357;28;20072;-75
2022/04/25 04:24:35;;;;;;;2.50;1.52;;;;;;;4.11;96.55;100079.72;5032354;28;20133;-75
2022/04/25 04:27:04;;;;;;;1.35;1.10;;;;;;;4.12;96.57;100073.22;5031096;28;20638;-75
2022/04/25 04:29:33;;;;;;;1.83;1.20;;;;;;;4.11;96.53;100071.56;5002834;28;20076;-75
2022/04/25 04:32:05;;;;;;;3.20;1.90;;;;;;;4.12;96.37;100067.78;5030515;28;20033;-75
2022/04/25 04:34:31;;;;;;;2.15;1.50;;;;;;;4.13;96.77;100065.88;5052745;28;20029;-75
2022/04/25 04:36:57;;;;;;;3.03;1.90;;;;;;;4.14;96.26;100062.91;5036532;28;20042;-74
2022/04/25 04:39:22;;;;;;;1.85;1.67;;;;;;;4.15;96.65;100061.84;5029849;28;20038;-75
2022/04/25 04:41:48;;;;;;;2.00;1.42;;;;;;;4.13;96.73;100065.88;5015309;28;20131;-75
2022/04/25 04:44:14;;;;;;;2.80;2.17;;;;;;;4.13;96.79;100064.00;5017829;28;20037;-75
2022/04/25 04:46:40;;;;;;;2.90;1.45;;;;;;;4.11;96.38;100063.41;5044973;28;20041;-75
2022/04/25 04:49:05;;;;;;;1.42;1.20;;;;;;;4.12;96.85;100058.81;5029342;28;20111;-75
2022/04/25 04:51:31;;;;;;;2.10;1.50;;;;;;;4.14;96.62;100062.91;5013747;28;20073;-75
2022/04/25 04:53:59;;;;;;;3.65;1.00;;;;;;;4.14;96.75;100057.47;5028275;28;20521;-75
2022/04/25 04:56:32;;;;;;;5.13;1.85;;;;;;;4.14;96.91;100052.06;5055021;28;20038;-75
2022/04/25 04:59:01;;;;;;;3.25;2.25;;;;;;;4.12;96.94;100056.91;4996187;28;20073;-76
2022/04/25 05:01:27;;;;;;;2.85;2.08;;;;;;;4.14;96.92;100051.22;5028275;28;20132;-75
2022/04/25 05:03:55;;;;;;;1.92;1.60;;;;;;;4.14;96.84;100054.75;5014007;28;20560;-75
2022/04/25 05:06:21;;;;;;;2.50;1.67;;;;;;;4.14;96.80;100051.22;5019072;28;20124;-75
2022/04/25 05:08:46;;;;;;;1.30;1.20;;;;;;;4.13;97.06;100055.03;5018716;28;20124;-75
2022/04/25 05:11:12;;;;;;;2.78;1.70;;;;;;;4.14;96.80;100045.81;5045927;28;20046;-73
2022/04/25 05:13:38;;;;;;;3.55;1.60;;;;;;;4.16;96.81;100049.06;5022657;28;20034;-76
2022/04/25 05:16:04;;;;;;;3.97;2.22;;;;;;;4.15;96.58;100050.97;5024391;28;20038;-75
2022/04/25 05:18:33;;;;;;;2.63;1.35;;;;;;;4.16;96.93;100043.66;5018164;28;20471;-75
2022/04/25 05:21:00;;;;;;;2.08;1.60;;;;;;;4.18;96.96;100049.69;5044496;28;20056;-76
2022/04/25 05:23:26;;;;;;;4.35;1.90;;;;;;;4.18;97.02;100044.25;4992160;28;20048;-75
2022/04/25 05:25:51;;;;;;;6.47;2.33;;;;;;;4.19;97.40;100037.72;5024539;28;20408;-74
2022/04/25 05:28:17;;;;;;;2.15;1.50;;;;;;;4.17;97.16;100039.88;5031775;28;20038;-76
2022/04/25 05:30:44;;;;;;;2.28;1.35;;;;;;;4.17;97.40;100031.75;5026187;28;20049;-75
2022/04/25 05:33:10;;;;;;;3.22;2.10;;;;;;;4.16;97.21;100047.19;5029785;28;20037;-76
2022/04/25 05:35:36;;;;;;;2.97;2.10;;;;;;;4.18;97.23;100039.63;5021072;28;20044;-79
2022/04/25 05:38:02;;;;;;;1.88;1.70;;;;;;;4.20;97.25;100032.06;5023309;28;20642;-75
2022/04/25 05:40:28;;;;;;;2.13;1.70;;;;;;;4.20;97.30;100032.06;5031100;28;20052;-75
2022/04/25 05:42:56;;;;;;;2.83;2.17;;;;;;;4.24;97.45;100027.75;5030275;28;20419;-75
2022/04/25 05:45:23;;;;;;;3.63;1.98;;;;;;;4.24;96.89;100035.06;5030279;28;20073;-75
2022/04/25 05:47:50;;;;;;;1.90;1.50;;;;;;;4.23;97.33;100033.44;5043653;28;20037;-74
2022/04/25 05:53:02;;;;;;;2.80;2.17;;;;;;;4.22;97.49;100050.81;5014336;28;20049;-74
2022/04/25 05:55:31;;;;;;;2.60;1.77;;;;;;;4.20;97.38;100033.94;5027035;28;20033;-77
2022/04/25 05:57:57;;;;;;;3.38;1.88;;;;;;;4.22;97.77;100015.50;5042515;28;20463;-74
2022/04/25 06:00:24;;;;;;;2.17;1.58;;;;;;;4.24;97.47;100014.16;5011376;28;20080;-76
2022/04/25 06:02:50;;;;;;;2.83;1.88;;;;;;;4.28;97.14;100013.66;5024036;28;20435;-74
2022/04/25 06:05:15;;;;;;;3.35;1.63;;;;;;;4.31;98.05;99999.56;5031342;28;20045;-76
2022/04/25 06:07:45;;;;;;;2.50;2.00;;;;;;;4.30;97.70;100009.59;5030779;28;20115;-75
2022/04/25 06:10:16;;;;;;;1.80;1.70;;;;;;;4.30;97.89;100004.16;5049891;28;20214;-74
2022/04/25 06:12:52;;;;;;;3.45;1.77;;;;;;;4.26;98.27;100011.19;5030452;28;20077;-75
2022/04/25 06:15:21;;;;;;;0.73;0.73;;;;;;;4.23;97.80;99996.22;5030160;28;20053;-75
2022/04/25 06:17:47;;;;;;;2.10;1.40;;;;;;;4.25;97.68;100006.84;5013979;28;20124;-76
2022/04/25 06:20:13;;;;;;;2.22;1.70;;;;;;;4.25;97.64;100001.41;5031178;28;20048;-75
2022/04/25 06:22:39;;;;;;;4.90;1.40;;;;;;;4.23;97.65;100001.66;5048121;28;20041;-75
2022/04/25 06:25:06;;;;;;;1.98;1.40;;;;;;;4.24;97.77;99991.63;5015762;28;20037;-75
2022/04/25 06:27:32;;;;;;;2.08;1.58;;;;;;;4.24;97.86;99997.88;5029418;28;20072;-75
2022/04/25 06:29:58;;;;;;;1.75;1.20;;;;;;;4.24;97.33;99989.72;5029787;28;20099;-75
2022/04/25 06:32:24;;;;;;;3.10;1.90;;;;;;;4.22;97.45;99993.78;5029878;28;20049;-75
2022/04/25 06:34:50;;;;;;;3.90;2.22;;;;;;;4.21;97.27;99992.97;5031099;28;20041;-75
2022/04/25 06:37:15;;;;;;;4.50;2.35;;;;;;;4.21;97.41;100003.81;5031074;28;20041;-75
2022/04/25 06:39:41;;;;;;;2.47;1.90;;;;;;;4.18;97.52;99979.06;5029541;28;20076;-75
2022/04/25 06:42:10;;;;;;;2.95;1.80;;;;;;;4.19;97.32;99981.53;5010907;28;20038;-75
2022/04/25 06:44:38;;;;;;;3.25;2.20;;;;;;;4.22;97.86;99982.91;5046053;28;20063;-75
2022/04/25 06:47:04;;;;;;;3.70;2.00;;;;;;;4.21;97.91;99984.00;5063170;28;20033;-75
2022/04/25 06:49:29;;;;;;;2.17;1.20;;;;;;;4.24;97.51;99973.44;5032271;28;20038;-75
2022/04/25 06:51:58;;;;;;;2.15;1.77;;;;;;;4.30;97.78;99974.28;5011172;28;20077;-74
2022/04/25 06:54:25;;;;;;;4.00;2.13;;;;;;;4.36;97.87;99976.00;5010925;28;20038;-74
2022/04/25 06:56:54;;;;;;;4.38;2.80;;;;;;;4.35;98.31;99973.53;5010092;28;20074;-74
2022/04/25 06:59:21;;;;;;;3.58;1.73;;;;;;;4.34;97.57;99975.44;5030729;28;20132;-77
2022/04/25 07:01:48;;;;;;;5.72;2.08;;;;;;;4.36;97.81;99978.72;5022614;28;20041;-77
2022/04/25 07:04:15;;;;;;;2.20;1.50;;;;;;;4.37;97.62;99977.63;5010033;28;20066;-77
2022/04/25 07:06:41;;;;;;;3.58;2.00;;;;;;;4.37;97.71;99976.81;5011268;28;20861;-76
2022/04/25 07:09:07;;;;;;;3.92;1.40;;;;;;;4.40;98.05;99979.03;5011026;28;20069;-76
2022/04/25 07:11:33;;;;;;;2.55;1.60;;;;;;;4.38;97.94;99976.56;5010972;28;20041;-77
2022/04/25 07:14:04;;;;;;;2.67;2.20;;;;;;;4.42;97.33;99971.44;5009885;28;20033;-75
2022/04/25 07:16:30;;;;;;;2.58;1.75;;;;;;;4.40;97.97;99966.25;5016423;28;20036;-75
2022/04/25 07:18:57;;;;;;;4.60;2.03;;;;;;;4.38;97.24;99976.56;5028226;28;20038;-75
2022/04/25 07:29:35;;;;;;;3.03;1.83;;;;;;;4.30;97.23;99976.19;5015575;28;20455;-74
2022/04/25 07:32:00;;;;;;;3.17;1.63;;;;;;;4.26;97.55;99967.75;5013592;28;20050;-75
2022/04/25 07:34:26;;;;;;;2.53;1.80;;;;;;;4.26;97.15;99965.03;5027516;28;20492;-75
2022/04/25 07:36:53;;;;;;;2.70;1.65;;;;;;;4.29;97.70;99956.34;5034414;28;20075;-75
2022/04/25 07:39:19;;;;;;;4.25;1.75;;;;;;;4.32;97.93;99950.41;5034013;28;20037;-75
2022/04/25 07:41:46;;;;;;;2.08;1.50;;;;;;;4.37;97.95;99953.19;5034053;28;20045;-76
2022/04/25 07:44:11;;;;;;;1.80;1.52;;;;;;;4.40;97.51;99960.81;5034168;28;20269;-75
2022/04/25 07:46:40;;;;;;;1.60;1.50;;;;;;;4.40;97.37;99951.84;5033966;28;20587;-75
2022/04/25 07:49:13;;;;;;;1.13;1.00;;;;;;;4.42;97.50;99950.53;5065196;28;20048;-75
2022/04/25 07:51:42;;;;;;;1.38;1.27;;;;;;;4.43;96.96;99952.16;5017252;28;20026;-76
2022/04/25 07:54:08;;;;;;;3.50;2.03;;;;;;;4.47;96.54;99953.28;5014002;28;20119;-74
2022/04/25 07:56:35;;;;;;;2.17;1.98;;;;;;;4.50;96.95;99954.66;4996391;28;20057;-75
2022/04/25 07:59:01;;;;;;;2.78;1.65;;;;;;;4.47;96.93;99956.00;5014220;28;20053;-74
2022/04/25 08:01:27;;;;;;;2.72;1.80;;;;;;;4.50;96.72;99936.44;5013685;28;20038;-74
2022/04/25 08:03:54;;;;;;;1.90;1.70;;;;;;;4.61;96.36;99945.53;5013895;28;20124;-74
2022/04/25 08:06:23;;;;;;;1.60;1.40;;;;;;;4.75;96.85;99938.56;5012603;28;20039;-74
2022/04/25 08:08:53;;;;;;;1.95;1.10;;;;;;;4.81;96.77;99942.16;5030590;28;20038;-75
2022/04/25 08:11:23;;;;;;;2.42;1.65;;;;;;;4.90;96.33;99934.34;5016276;28;20038;-73
2022/04/25 08:19:20;;;;;;;2.13;1.63;;;;;;;4.95;96.30;99948.78;5021987;28;20393;-74
2022/04/25 08:21:46;;;;;;;2.90;1.77;;;;;;;4.94;96.21;99954.47;5033005;28;20478;-74
2022/04/25 08:24:13;;;;;;;1.85;1.50;;;;;;;4.92;96.07;99945.78;5035830;28;20523;-74
2022/04/25 08:26:38;;;;;;;1.63;1.25;;;;;;;4.84;96.09;99947.06;5028651;28;20053;-75
2022/04/25 08:29:04;;;;;;;1.13;1.02;;;;;;;4.78;95.74;99938.06;5032876;28;20049;-74
2022/04/25 08:31:31;;;;;;;3.17;1.45;;;;;;;4.75;95.61;99948.63;5030285;28;20037;-75
2022/04/25 08:33:57;;;;;;;1.73;1.30;;;;;;;4.74;95.32;99938.84;5037687;28;20488;-74
2022/04/25 08:36:23;;;;;;;1.73;1.20;;;;;;;4.68;95.21;99940.69;5064410;28;20088;-74
2022/04/25 08:38:49;;;;;;;1.92;1.30;;;;;;;4.64;95.16;99931.41;5033000;28;20069;-74
2022/04/25 08:41:17;;;;;;;1.38;1.00;;;;;;;4.68;95.39;99937.97;5064239;28;20048;-74
2022/04/25 08:43:43;;;;;;;4.30;1.02;;;;;;;4.65;95.06;99943.09;5048510;28;20553;-74
2022/04/25 08:46:09;;;;;;;1.02;0.90;;;;;;;4.57;94.88;99936.25;5065288;28;20045;-74
2022/04/25 08:48:37;;;;;;;1.05;0.90;;;;;;;4.59;95.00;99933.28;5048051;28;20038;-75
2022/04/25 08:51:04;;;;;;;1.05;0.90;;;;;;;4.59;95.03;99934.09;5033144;28;20041;-72
2022/04/25 08:53:32;;;;;;;1.15;1.00;;;;;;;4.66;94.91;99933.88;5013752;28;20041;-73
2022/04/25 08:56:00;;;;;;;1.00;0.90;;;;;;;4.63;95.36;99928.97;5031921;28;20041;-73
2022/04/25 08:58:26;;;;;;;0.90;0.90;;;;;;;4.67;94.57;99920.00;5025923;28;20674;-73
2022/04/25 09:00:53;;;;;;;1.30;1.20;;;;;;;4.75;94.32;99924.16;5011615;28;20496;-73
2022/04/25 09:03:18;;;;;;;2.42;1.20;;;;;;;4.74;95.02;99930.69;5013081;28;20041;-74
2022/04/25 09:05:44;;;;;;;1.05;1.00;;;;;;;4.66;95.01;99928.44;5026500;28;20120;-73
2022/04/25 09:08:10;;;;;;;1.02;0.85;;;;;;;4.57;94.75;99919.94;5047852;28;20132;-73
2022/04/25 09:10:36;;;;;;;1.48;1.10;;;;;;;4.51;94.58;99924.53;5014889;28;20049;-73
2022/04/25 09:13:02;;;;;;;1.42;1.10;;;;;;;4.50;95.09;99920.16;5031450;28;20049;-73
2022/04/25 09:15:28;;;;;;;2.72;1.00;;;;;;;4.53;95.12;99919.66;5014277;28;20103;-73
2022/04/25 09:17:55;;;;;;;2.08;1.10;;;;;;;4.59;95.32;99919.69;5031057;28;20120;-74
2022/04/25 09:20:21;;;;;;;1.98;1.15;;;;;;;4.57;94.68;99921.84;5046244;28;20045;-73
2022/04/25 09:22:47;;;;;;;1.27;1.00;;;;;;;4.51;94.54;99924.53;5048743;28;20522;-74
2022/04/25 09:25:18;;;;;;;3.05;1.20;;;;;;;4.52;95.05;99926.16;5027033;28;20045;-75
2022/04/25 09:27:44;;;;;;;2.38;1.25;;;;;;;4.49;94.66;99923.94;5021643;28;20038;-78
2022/04/25 09:30:20;;;;;;;1.00;0.90;;;;;;;4.51;94.84;99921.81;5011066;28;20045;-76
2022/04/25 09:32:48;;;;;;;1.40;1.10;;;;;;;4.49;94.10;99923.94;5045154;28;20045;-76
2022/04/25 09:35:33;;;;;;;0.80;0.80;;;;;;;4.43;94.03;99919.56;5047202;28;20074;-75
2022/04/25 09:38:04;;;;;;;1.00;0.80;;;;;;;4.45;94.42;99911.97;5032197;28;20041;-77
2022/04/25 09:40:32;;;;;;;2.25;0.80;;;;;;;4.44;94.18;99920.38;5031697;28;20110;-76
2022/04/25 09:43:14;;;;;;;2.73;1.00;;;;;;;4.40;94.14;99911.94;5031856;28;20045;-78
2022/04/25 09:45:42;;;;;;;1.33;1.00;;;;;;;4.39;94.34;99907.59;5046267;28;20998;-76
2022/04/25 09:48:13;;;;;;;1.45;1.30;;;;;;;4.43;94.10;99905.97;5038116;28;20042;-76
2022/04/25 09:50:39;;;;;;;1.27;1.15;;;;;;;4.46;94.04;99912.78;5014350;28;20505;-76
2022/04/25 09:53:05;;;;;;;2.42;1.15;;;;;;;4.45;94.18;99911.97;5010809;28;20076;-77
2022/04/25 09:55:34;;;;;;;3.38;1.50;;;;;;;4.44;94.80;99909.50;5027037;28;20133;-76
2022/04/25 09:58:20;;;;;;;1.77;1.13;;;;;;;4.41;94.73;99913.56;5012100;28;20092;-77
2022/04/25 10:00:47;;;;;;;4.70;1.35;;;;;;;4.40;94.27;99902.97;5016379;28;20069;-76
2022/04/25 10:03:15;;;;;;;3.03;1.33;;;;;;;4.44;94.70;99898.66;5021770;28;20459;-76
2022/04/25 10:05:52;;;;;;;3.47;1.38;;;;;;;4.47;94.69;99907.09;5028563;28;20034;-77
2022/04/25 10:08:18;;;;;;;1.15;1.02;;;;;;;4.46;94.22;99907.34;5015068;28;20071;-76
2022/04/25 10:10:48;;;;;;;1.38;1.20;;;;;;;4.39;94.67;99899.44;5028481;28;20037;-77
2022/04/25 10:13:15;;;;;;;1.45;0.90;;;;;;;4.39;95.15;99895.91;5049813;28;20033;-77
2022/04/25 10:15:42;;;;;;;1.42;1.02;;;;;;;4.39;94.74;99896.72;5029964;28;20038;-73
2022/04/25 10:18:09;;;;;;;1.52;1.20;;;;;;;4.36;95.23;99908.09;5024784;28;20038;-75
2022/04/25 10:20:36;;;;;;;2.60;1.60;;;;;;;4.35;94.73;99902.94;5037516;28;20045;-75
2022/04/25 10:23:04;;;;;;;1.73;1.40;;;;;;;4.32;94.45;99901.53;5034622;28;20187;-75
2022/04/25 10:25:31;;;;;;;1.60;1.50;;;;;;;4.31;94.84;99916.19;5042353;28;20507;-74
2022/04/25 10:28:05;;;;;;;2.20;1.23;;;;;;;4.32;94.98;99898.81;5064714;28;20064;-75
2022/04/25 10:30:33;;;;;;;2.13;1.40;;;;;;;4.32;95.15;99901.53;5055374;28;20135;-75
2022/04/25 10:33:13;;;;;;;2.47;1.50;;;;;;;4.30;94.79;99898.25;5022673;28;20137;-75
2022/04/25 10:35:39;;;;;;;1.63;1.40;;;;;;;4.32;94.66;99898.81;5029652;28;20220;-75
2022/04/25 10:44:37;;;;;;;1.65;1.33;;;;;;;4.41;95.19;99910.03;5048043;28;20447;-75
2022/04/25 10:47:05;;;;;;;2.45;1.60;;;;;;;4.38;94.53;99911.38;5045857;28;20547;-76
2022/04/25 10:49:37;;;;;;;1.80;1.25;;;;;;;4.35;94.82;99906.47;5030798;28;20045;-76
2022/04/25 10:52:04;;;;;;;2.17;1.42;;;;;;;4.29;94.86;99912.91;5030061;28;20507;-76
2022/04/25 10:54:50;;;;;;;2.45;1.50;;;;;;;4.35;94.62;99909.19;5014623;28;20037;-76
2022/04/25 10:57:17;;;;;;;1.88;1.55;;;;;;;4.47;95.20;99912.53;5019061;28;20042;-75
2022/04/25 10:59:43;;;;;;;2.83;1.73;;;;;;;4.58;95.26;99913.44;5012623;28;20042;-76
2022/04/25 11:02:22;;;;;;;2.20;1.48;;;;;;;4.60;95.00;99908.56;5018753;28;20091;-75
2022/04/25 11:04:47;;;;;;;2.72;1.85;;;;;;;4.62;95.37;99905.59;5030771;28;20415;-75
2022/04/25 11:07:21;;;;;;;3.03;1.80;;;;;;;4.68;95.35;99907.25;5033657;28;20045;-75
2022/04/25 11:09:47;;;;;;;2.83;1.73;;;;;;;4.61;95.28;99903.94;5045159;28;20069;-77
2022/04/25 11:12:13;;;;;;;2.78;2.10;;;;;;;4.59;95.22;99897.97;5014307;28;20571;-78
2022/04/25 11:15:00;;;;;;;2.97;2.25;;;;;;;4.58;95.19;99899.03;5047907;28;20034;-77
2022/04/25 11:17:26;;;;;;;2.65;2.05;;;;;;;4.57;95.24;99898.22;5030641;28;20037;-77
2022/04/25 11:19:55;;;;;;;5.03;2.13;;;;;;;4.60;95.20;99905.84;5047945;28;20538;-75
2022/04/25 11:22:36;;;;;;;3.05;2.10;;;;;;;4.65;94.94;99910.50;5052400;28;20030;-77
2022/04/25 11:25:26;;;;;;;2.80;2.13;;;;;;;4.57;95.27;99913.69;5055360;28;20049;-77
2022/04/25 11:28:10;;;;;;;3.58;2.30;;;;;;;4.48;95.11;99907.91;5034564;28;20105;-76
2022/04/25 11:30:37;;;;;;;4.13;2.40;;;;;;;4.52;94.59;99915.31;5015476;28;20569;-77
2022/04/25 11:33:04;;;;;;;4.82;2.67;;;;;;;4.52;95.33;99912.59;5016115;28;20046;-76
2022/04/25 11:35:29;;;;;;;2.03;1.83;;;;;;;4.45;94.52;99914.69;5058288;28;20447;-75
2022/04/25 11:37:56;;;;;;;4.05;2.00;;;;;;;4.37;95.04;99917.88;5043001;28;20048;-76
2022/04/25 11:40:22;;;;;;;2.85;2.40;;;;;;;4.35;95.07;99909.19;5046033;28;20048;-75
2022/04/25 11:42:48;;;;;;;4.05;1.98;;;;;;;4.33;94.67;99915.91;5046356;28;20037;-76
2022/04/25 11:45:14;;;;;;;3.05;2.28;;;;;;;4.34;95.16;99920.28;5046296;28;20056;-76
2022/04/25 11:47:40;;;;;;;4.00;2.05;;;;;;;4.33;95.46;99918.63;5026119;28;20069;-77
2022/04/25 11:50:07;;;;;;;4.70;2.50;;;;;;;4.36;95.10;99921.69;5015073;28;20535;-78
2022/04/25 11:52:33;;;;;;;4.60;2.08;;;;;;;4.43;95.36;99916.84;5048225;28;20037;-78
2022/04/25 11:54:59;;;;;;;3.15;2.17;;;;;;;4.48;95.67;99911.44;5012128;28;20038;-77
2022/04/25 11:57:26;;;;;;;3.38;2.20;;;;;;;4.46;95.52;99913.59;5024717;28;20440;-77
2022/04/25 12:00:10;;;;;;;3.35;2.13;;;;;;;4.53;95.91;99921.56;5045595;28;20497;-74
2022/04/25 12:02:38;;;;;;;4.30;2.70;;;;;;;4.52;95.45;99918.03;5014333;28;20603;-76
2022/04/25 12:05:07;;;;;;;3.50;2.40;;;;;;;4.45;95.20;99911.97;5031627;28;20451;-77